Time;durP1;ratioP1;P1;durP2;ratioP2;P2;SDS_P1;SDS_P2;PMS_P1;PMS_P2;Temp;Humidity;BMP_temperature;BMP_pressure;BME280_temperature;BME280_humidity;BME280_pressure;Samples;Min_cycle;Max_cycle;Signal;HPM_P1;HPM_P2
2021/12/13 00:00:25;;;;;;;12.80;7.00;;;10.00;86.10;;;;;;5089570;28;20157;-85
2021/12/13 00:03:16;;;;;;;10.40;7.80;;;10.00;86.20;;;;;;5087142;28;20056;-83
2021/12/13 00:06:12;;;;;;;8.75;7.20;;;10.00;86.20;;;;;;5088718;28;20058;-84
2021/12/13 00:08:42;;;;;;;10.45;8.15;;;10.00;86.20;;;;;;5088591;28;20093;-84
2021/12/13 00:11:19;;;;;;;9.93;6.97;;;10.00;86.20;;;;;;5088518;28;20066;-84
2021/12/13 00:14:00;;;;;;;9.52;7.70;;;9.90;86.20;;;;;;5087304;28;20395;-85
2021/12/13 00:16:31;;;;;;;10.85;7.03;;;9.90;86.20;;;;;;5088493;28;20044;-84
2021/12/13 00:19:06;;;;;;;10.52;7.45;;;9.90;86.20;;;;;;5088021;28;20048;-84
2021/12/13 00:21:39;;;;;;;9.82;7.90;;;9.90;86.30;;;;;;5086574;28;20513;-84
2021/12/13 00:24:10;;;;;;;10.50;7.82;;;9.90;86.20;;;;;;5089883;28;20052;-85
2021/12/13 00:26:46;;;;;;;11.55;7.88;;;9.90;86.30;;;;;;5091100;28;20058;-84
2021/12/13 00:29:19;;;;;;;9.82;7.70;;;9.90;86.30;;;;;;5092313;28;20054;-84
2021/12/13 00:31:49;;;;;;;11.93;7.85;;;9.90;86.30;;;;;;5092733;28;20055;-84
2021/12/13 00:34:19;;;;;;;10.65;7.70;;;10.00;86.30;;;;;;5092468;28;20139;-84
2021/12/13 00:36:53;;;;;;;10.93;7.82;;;10.00;86.30;;;;;;5092606;28;20067;-84
2021/12/13 00:39:30;;;;;;;12.90;7.90;;;9.90;86.30;;;;;;5094596;28;20048;-84
2021/12/13 00:42:00;;;;;;;10.98;8.30;;;9.90;86.40;;;;;;5091757;28;20452;-84
2021/12/13 00:44:32;;;;;;;10.55;7.35;;;9.90;86.30;;;;;;5091998;28;20629;-84
2021/12/13 00:47:06;;;;;;;12.70;7.55;;;9.90;86.40;;;;;;5092260;28;20044;-84
2021/12/13 00:49:35;;;;;;;11.35;7.03;;;9.90;86.40;;;;;;5092324;28;20071;-84
2021/12/13 00:52:04;;;;;;;9.45;7.47;;;9.90;86.40;;;;;;5076446;28;20047;-84
2021/12/13 00:54:38;;;;;;;11.13;7.38;;;9.90;86.40;;;;;;5094213;28;20417;-84
2021/12/13 00:57:21;;;;;;;10.93;7.93;;;9.90;86.40;;;;;;5093273;28;20040;-84
2021/12/13 00:59:55;;;;;;;10.30;8.23;;;9.90;86.40;;;;;;5090452;28;20058;-84
2021/12/13 01:02:30;;;;;;;15.90;8.35;;;9.90;86.40;;;;;;5091777;28;20066;-85
2021/12/13 01:05:12;;;;;;;11.93;7.65;;;9.90;86.40;;;;;;5091954;28;20703;-84
2021/12/13 01:08:04;;;;;;;9.45;7.13;;;9.90;86.40;;;;;;5091951;28;20125;-84
2021/12/13 01:11:00;;;;;;;10.05;7.22;;;9.90;86.40;;;;;;5091887;28;20044;-84
2021/12/13 01:13:36;;;;;;;11.07;8.20;;;9.90;86.50;;;;;;5079275;28;20510;-85
2021/12/13 01:19:29;;;;;;;11.63;8.52;;;9.90;86.50;;;;;;5077949;28;20094;-85
2021/12/13 01:22:25;;;;;;;10.15;7.63;;;9.90;86.50;;;;;;5091706;28;20760;-85
2021/12/13 01:27:37;;;;;;;11.55;8.70;;;9.90;86.50;;;;;;5093307;28;20047;-84
2021/12/13 01:30:09;;;;;;;11.02;8.02;;;9.90;86.50;;;;;;5092575;28;20040;-84
2021/12/13 01:32:40;;;;;;;12.02;7.75;;;9.90;86.50;;;;;;5088870;28;20052;-84
2021/12/13 01:35:12;;;;;;;14.30;8.32;;;9.90;86.50;;;;;;5091402;28;20044;-84
2021/12/13 01:37:40;;;;;;;12.98;8.88;;;9.90;86.50;;;;;;5089211;28;20047;-84
2021/12/13 01:40:13;;;;;;;12.80;8.57;;;9.90;86.50;;;;;;5091443;28;20097;-84
2021/12/13 01:42:41;;;;;;;11.50;8.25;;;9.90;86.50;;;;;;5091860;28;20055;-85
2021/12/13 01:45:12;;;;;;;15.80;8.50;;;9.90;86.50;;;;;;5092768;28;20455;-84
2021/12/13 01:47:45;;;;;;;10.63;7.93;;;9.90;86.50;;;;;;5091166;28;20048;-84
2021/12/13 01:50:20;;;;;;;13.57;9.05;;;9.90;86.50;;;;;;5091013;28;20046;-84
2021/12/13 01:52:50;;;;;;;12.38;9.10;;;9.90;86.50;;;;;;5091044;28;20134;-84
2021/12/13 01:55:35;;;;;;;12.00;9.15;;;9.90;86.50;;;;;;5091245;28;20044;-84
2021/12/13 02:01:11;;;;;;;16.98;9.07;;;9.90;86.50;;;;;;5089571;28;20417;-84
2021/12/13 02:03:45;;;;;;;11.65;9.02;;;9.90;86.50;;;;;;5089188;28;20521;-84
2021/12/13 02:06:21;;;;;;;17.13;10.27;;;9.90;86.50;;;;;;5090805;28;20565;-84
2021/12/13 02:08:52;;;;;;;12.77;8.60;;;9.90;86.60;;;;;;5090671;28;20048;-85
2021/12/13 02:11:20;;;;;;;12.25;9.38;;;9.80;86.60;;;;;;5088987;28;20054;-84
2021/12/13 02:14:06;;;;;;;16.83;10.05;;;9.90;86.60;;;;;;5090630;28;20054;-84
2021/12/13 02:17:10;;;;;;;14.73;11.18;;;9.90;86.60;;;;;;5089462;28;20042;-85
2021/12/13 02:19:43;;;;;;;11.90;9.52;;;9.90;86.60;;;;;;5079794;28;20044;-84
2021/12/13 02:22:34;;;;;;;13.43;9.63;;;9.90;86.60;;;;;;5090348;28;20050;-84
2021/12/13 02:25:19;;;;;;;14.82;10.35;;;9.90;86.60;;;;;;5074657;28;20399;-85
2021/12/13 02:28:00;;;;;;;13.95;9.70;;;9.90;86.60;;;;;;5088779;28;20584;-84
2021/12/13 02:30:50;;;;;;;13.93;10.70;;;9.90;86.60;;;;;;5088113;28;20054;-84
2021/12/13 02:33:29;;;;;;;13.95;9.50;;;9.80;86.60;;;;;;5090958;28;20145;-84
2021/12/13 02:36:16;;;;;;;15.68;9.88;;;9.80;86.60;;;;;;5087681;28;20054;-84
2021/12/13 02:38:47;;;;;;;15.02;10.07;;;9.90;86.60;;;;;;5090118;28;20528;-84
2021/12/13 02:41:18;;;;;;;11.90;9.38;;;9.80;86.60;;;;;;5089733;28;20067;-84
2021/12/13 02:43:50;;;;;;;12.40;8.73;;;9.80;86.60;;;;;;5090026;28;20051;-84
2021/12/13 02:46:17;;;;;;;13.70;9.55;;;9.80;86.60;;;;;;5090168;28;20076;-85
2021/12/13 02:48:51;;;;;;;13.18;9.75;;;9.80;86.60;;;;;;5090940;28;20051;-85
2021/12/13 02:51:26;;;;;;;16.57;12.57;;;9.80;86.60;;;;;;5086371;28;20044;-84
2021/12/13 02:53:59;;;;;;;18.02;13.23;;;9.80;86.60;;;;;;5090010;28;20044;-85
2021/12/13 02:56:33;;;;;;;18.38;12.32;;;9.80;86.60;;;;;;5088301;28;20043;-84
2021/12/13 02:59:04;;;;;;;15.75;11.30;;;9.80;86.60;;;;;;5089626;28;20044;-84
2021/12/13 03:01:38;;;;;;;19.08;14.52;;;9.80;86.60;;;;;;5089823;28;20051;-84
2021/12/13 03:04:07;;;;;;;;;;;9.80;86.60;;;;;;5074664;28;20113;-84
2021/12/13 03:06:39;;;;;;;21.17;14.98;;;9.80;86.50;;;;;;5091132;28;19920;-84
2021/12/13 03:09:15;;;;;;;19.88;14.90;;;9.80;86.60;;;;;;5089319;28;20050;-84
2021/12/13 03:11:43;;;;;;;20.15;13.07;;;9.80;86.60;;;;;;5089536;28;20075;-84
2021/12/13 03:14:19;;;;;;;21.05;15.85;;;9.70;86.60;;;;;;5089345;28;20036;-84
2021/12/13 03:17:28;;;;;;;19.75;15.07;;;9.80;86.60;;;;;;5089513;28;20048;-84
2021/12/13 03:19:57;;;;;;;21.90;16.67;;;9.70;86.60;;;;;;5081308;28;20062;-84
2021/12/13 03:23:02;;;;;;;20.17;15.23;;;9.80;86.60;;;;;;5089299;28;20399;-84
2021/12/13 03:26:06;;;;;;;21.58;16.77;;;9.80;86.60;;;;;;5076939;28;20067;-84
2021/12/13 03:29:05;;;;;;;19.00;14.77;;;9.70;86.60;;;;;;5077856;28;20454;-84
2021/12/13 03:31:40;;;;;;;21.80;16.08;;;9.70;86.60;;;;;;5077646;28;20052;-84
2021/12/13 03:34:12;;;;;;;22.92;16.13;;;9.70;86.60;;;;;;5072893;28;20510;-84
2021/12/13 03:36:57;;;;;;;22.95;16.60;;;9.70;86.60;;;;;;5090402;28;20052;-84
2021/12/13 03:39:33;;;;;;;21.70;15.88;;;9.70;86.60;;;;;;5090421;28;20052;-84
2021/12/13 03:42:05;;;;;;;22.50;15.30;;;9.70;86.60;;;;;;5088350;28;20413;-83
2021/12/13 03:44:47;;;;;;;20.98;16.25;;;9.70;86.60;;;;;;5088870;28;20052;-84
2021/12/13 03:47:23;;;;;;;19.23;14.63;;;9.70;86.60;;;;;;5088990;28;20036;-84
2021/12/13 03:49:54;;;;;;;17.27;13.18;;;9.70;86.60;;;;;;5088782;28;20510;-84
2021/12/13 03:52:26;;;;;;;18.90;14.95;;;9.70;86.60;;;;;;5088663;28;20040;-84
2021/12/13 03:54:55;;;;;;;20.05;16.15;;;9.70;86.60;;;;;;5088957;28;20433;-84
2021/12/13 03:57:23;;;;;;;18.95;14.85;;;9.70;86.60;;;;;;5090981;28;20051;-83
2021/12/13 03:59:51;;;;;;;21.92;16.88;;;9.70;86.60;;;;;;5088639;28;20110;-84
2021/12/13 04:02:29;;;;;;;22.63;16.92;;;9.70;86.60;;;;;;5088275;28;20047;-84
2021/12/13 04:05:02;;;;;;;22.45;15.68;;;9.70;86.60;;;;;;5087592;28;20048;-84
2021/12/13 04:07:42;;;;;;;21.60;16.35;;;9.70;86.60;;;;;;5087204;28;20097;-84
2021/12/13 04:10:17;;;;;;;22.58;16.83;;;9.60;86.50;;;;;;5073962;28;20044;-84
2021/12/13 04:12:50;;;;;;;22.75;18.33;;;9.60;86.50;;;;;;5089939;28;20058;-84
2021/12/13 04:15:34;;;;;;;22.05;16.05;;;9.70;86.50;;;;;;5085028;28;20059;-84
2021/12/13 04:18:27;;;;;;;21.77;16.02;;;9.60;86.50;;;;;;5088096;28;20044;-84
2021/12/13 04:21:05;;;;;;;21.75;16.15;;;9.60;86.50;;;;;;5088500;28;20453;-84
2021/12/13 04:23:34;;;;;;;22.83;16.80;;;9.60;86.50;;;;;;5088035;28;20044;-84
2021/12/13 04:26:06;;;;;;;25.30;17.75;;;9.60;86.50;;;;;;5088599;28;20050;-84
2021/12/13 04:28:39;;;;;;;19.63;15.35;;;9.60;86.50;;;;;;5088552;28;20540;-85
2021/12/13 04:31:11;;;;;;;23.90;17.55;;;9.60;86.50;;;;;;5073444;28;20068;-84
2021/12/13 04:33:46;;;;;;;23.83;17.38;;;9.60;86.50;;;;;;5088646;28;20055;-84
2021/12/13 04:36:23;;;;;;;23.65;18.08;;;9.60;86.50;;;;;;5088133;28;20425;-84
2021/12/13 04:38:56;;;;;;;24.13;17.10;;;9.50;86.50;;;;;;5087197;28;20044;-84
2021/12/13 04:41:36;;;;;;;22.63;17.17;;;9.50;86.50;;;;;;5088480;28;20395;-84
2021/12/13 04:44:16;;;;;;;26.13;18.38;;;9.60;86.50;;;;;;5088279;28;20048;-84
2021/12/13 04:46:48;;;;;;;23.20;17.08;;;9.60;86.50;;;;;;5086908;28;20044;-84
2021/12/13 04:49:18;;;;;;;24.00;17.98;;;9.50;86.50;;;;;;5088412;28;20044;-84
2021/12/13 04:52:07;;;;;;;29.58;18.08;;;9.50;86.50;;;;;;5089215;28;20135;-84
2021/12/13 04:54:40;;;;;;;28.58;18.67;;;9.50;86.50;;;;;;5086477;28;20044;-85
2021/12/13 04:57:07;;;;;;;22.58;17.65;;;9.50;86.50;;;;;;5089769;28;20048;-84
2021/12/13 04:59:35;;;;;;;23.15;17.98;;;9.50;86.50;;;;;;5088095;28;20048;-84
2021/12/13 05:02:06;;;;;;;29.83;20.75;;;9.50;86.50;;;;;;5088033;28;20046;-84
2021/12/13 05:04:34;;;;;;;27.13;19.33;;;9.50;86.50;;;;;;5088253;28;20101;-84
2021/12/13 05:07:04;;;;;;;28.17;19.92;;;9.50;86.50;;;;;;5072223;28;20036;-84
2021/12/13 05:09:33;;;;;;;27.38;19.40;;;9.50;86.50;;;;;;5085077;28;20056;-84
2021/12/13 05:12:16;;;;;;;30.55;21.50;;;9.50;86.50;;;;;;5099515;28;20058;-84
2021/12/13 05:14:48;;;;;;;29.90;21.42;;;9.50;86.50;;;;;;5088515;28;20534;-83
2021/12/13 05:17:31;;;;;;;22.73;17.90;;;9.50;86.50;;;;;;5091863;28;20050;-84
2021/12/13 05:20:43;;;;;;;29.80;21.58;;;9.50;86.50;;;;;;5090114;28;20040;-84
2021/12/13 05:23:13;;;;;;;29.02;20.77;;;9.50;86.50;;;;;;5088737;28;20047;-84
2021/12/13 05:25:44;;;;;;;32.67;22.92;;;9.50;86.50;;;;;;5090180;28;20048;-84
2021/12/13 05:28:17;;;;;;;28.20;20.52;;;9.50;86.50;;;;;;5091642;28;20040;-84
2021/12/13 05:30:57;;;;;;;31.08;21.58;;;9.50;86.50;;;;;;5092619;28;20048;-84
2021/12/13 05:33:28;;;;;;;28.50;21.92;;;9.50;86.50;;;;;;5093140;28;20059;-84
2021/12/13 05:35:58;;;;;;;30.75;22.50;;;9.50;86.50;;;;;;5091084;28;20509;-84
2021/12/13 05:38:33;;;;;;;34.67;21.95;;;9.50;86.50;;;;;;5091457;28;20048;-84
2021/12/13 05:41:05;;;;;;;30.58;21.65;;;9.40;86.50;;;;;;5091520;28;20054;-84
2021/12/13 05:43:32;;;;;;;28.58;21.10;;;9.50;86.50;;;;;;5091185;28;20052;-84
2021/12/13 05:46:01;;;;;;;31.10;21.90;;;9.50;86.50;;;;;;5091293;28;20072;-84
2021/12/13 05:48:34;;;;;;;31.17;22.23;;;9.40;86.50;;;;;;5088712;28;20048;-84
2021/12/13 05:51:21;;;;;;;33.55;22.75;;;9.50;86.50;;;;;;5090270;28;20051;-84
2021/12/13 05:53:54;;;;;;;31.30;21.27;;;9.50;86.50;;;;;;5091080;28;20070;-84
2021/12/13 05:56:22;;;;;;;29.30;22.00;;;9.40;86.50;;;;;;5090888;28;20036;-84
2021/12/13 05:59:08;;;;;;;39.33;23.15;;;9.40;86.50;;;;;;5090914;28;20048;-84
2021/12/13 06:01:50;;;;;;;36.17;22.45;;;9.40;86.50;;;;;;5090955;28;20048;-84
2021/12/13 06:04:42;;;;;;;33.75;22.55;;;9.40;86.50;;;;;;5088939;28;20063;-84
2021/12/13 06:07:17;;;;;;;35.10;23.98;;;9.40;86.50;;;;;;5076204;28;20048;-84
2021/12/13 06:10:09;;;;;;;34.33;22.48;;;9.40;86.50;;;;;;5091175;28;20506;-84
2021/12/13 06:12:39;;;;;;;32.30;22.60;;;9.40;86.50;;;;;;5088972;28;20058;-84
2021/12/13 06:15:31;;;;;;;37.28;23.42;;;9.40;86.50;;;;;;5091845;28;20067;-84
2021/12/13 06:18:04;;;;;;;36.28;24.00;;;9.40;86.50;;;;;;5090959;28;20058;-84
2021/12/13 06:20:50;;;;;;;39.08;26.08;;;9.40;86.50;;;;;;5090407;28;20044;-84
2021/12/13 06:23:28;;;;;;;38.88;23.98;;;9.40;86.50;;;;;;5090144;28;20051;-84
2021/12/13 06:26:01;;;;;;;35.05;23.60;;;9.40;86.50;;;;;;5090480;28;20048;-84
2021/12/13 06:28:39;;;;;;;39.15;25.48;;;9.40;86.50;;;;;;5090476;28;20044;-84
2021/12/13 06:31:15;;;;;;;40.30;24.40;;;9.40;86.50;;;;;;5075377;28;20146;-84
2021/12/13 06:33:52;;;;;;;36.30;23.55;;;9.40;86.50;;;;;;5090750;28;20569;-84
2021/12/13 06:36:48;;;;;;;38.95;24.00;;;9.40;86.50;;;;;;5091164;28;20101;-84
2021/12/13 06:39:20;;;;;;;38.83;25.27;;;9.40;86.50;;;;;;5089255;28;20062;-84
2021/12/13 06:41:50;;;;;;;37.08;25.02;;;9.40;86.50;;;;;;5088937;28;20052;-84
2021/12/13 06:44:25;;;;;;;37.13;24.20;;;9.40;86.50;;;;;;5087401;28;20044;-84
2021/12/13 06:46:57;;;;;;;33.70;23.98;;;9.40;86.50;;;;;;5089684;28;20052;-84
2021/12/13 06:49:49;;;;;;;38.10;23.88;;;9.40;86.50;;;;;;5088993;28;20067;-84
2021/12/13 06:52:16;;;;;;;37.10;23.77;;;9.40;86.50;;;;;;5076238;28;20046;-84
2021/12/13 06:54:47;;;;;;;41.53;23.67;;;9.40;86.50;;;;;;5090551;28;20493;-84
2021/12/13 06:57:22;;;;;;;32.42;22.40;;;9.40;86.50;;;;;;5090094;28;20512;-84
2021/12/13 06:59:54;;;;;;;41.03;23.85;;;9.40;86.50;;;;;;5089665;28;20048;-84
2021/12/13 07:02:27;;;;;;;39.00;23.50;;;9.30;86.50;;;;;;5089232;28;20054;-84
2021/12/13 07:05:04;;;;;;;35.30;23.33;;;9.40;86.50;;;;;;5089581;28;20048;-84
2021/12/13 07:07:51;;;;;;;35.70;22.38;;;9.40;86.50;;;;;;5089765;28;20070;-84
2021/12/13 07:10:28;;;;;;;37.03;22.83;;;9.40;86.50;;;;;;5075973;28;20044;-84
2021/12/13 07:13:01;;;;;;;38.97;22.63;;;9.40;86.50;;;;;;5089628;28;20052;-84
2021/12/13 07:15:42;;;;;;;39.47;24.20;;;9.30;86.40;;;;;;5087015;28;20048;-84
2021/12/13 07:18:17;;;;;;;38.22;24.05;;;9.30;86.50;;;;;;5091256;28;20052;-84
2021/12/13 07:20:55;;;;;;;36.08;22.55;;;9.30;86.40;;;;;;5089244;28;20501;-84
2021/12/13 07:23:22;;;;;;;35.72;22.60;;;9.30;86.40;;;;;;5087768;28;20501;-84
2021/12/13 07:25:52;;;;;;;37.50;23.60;;;9.30;86.40;;;;;;5089447;28;20064;-84
2021/12/13 07:28:35;;;;;;;40.28;24.05;;;9.30;86.40;;;;;;5088180;28;20045;-84
2021/12/13 07:31:09;;;;;;;40.22;22.85;;;9.30;86.40;;;;;;5073405;28;20056;-83
2021/12/13 07:33:43;;;;;;;40.25;24.35;;;9.30;86.40;;;;;;5087434;28;20391;-84
2021/12/13 07:36:24;;;;;;;41.97;23.77;;;9.30;86.40;;;;;;5090199;28;20058;-84
2021/12/13 07:38:58;;;;;;;41.20;24.52;;;9.30;86.40;;;;;;5089028;28;20064;-84
2021/12/13 07:41:39;;;;;;;;;;;9.30;86.40;;;;;;5089436;28;20537;-84
2021/12/13 07:44:06;;;;;;;38.22;23.63;;;9.30;86.40;;;;;;5088924;28;19927;-84
2021/12/13 07:46:34;;;;;;;38.45;24.13;;;9.30;86.40;;;;;;5087949;28;20048;-84
2021/12/13 07:49:08;;;;;;;44.42;25.27;;;9.30;86.40;;;;;;5073216;28;20044;-84
2021/12/13 07:51:47;;;;;;;39.97;25.70;;;9.20;86.40;;;;;;5086967;28;20127;-85
2021/12/13 07:54:18;;;;;;;42.08;24.48;;;9.20;86.40;;;;;;5089261;28;20052;-83
2021/12/13 07:56:53;;;;;;;46.25;25.23;;;9.30;86.40;;;;;;5088820;28;20044;-84
2021/12/13 07:59:36;;;;;;;42.20;24.08;;;9.30;86.50;;;;;;5088469;28;20040;-84
2021/12/13 08:02:33;;;;;;;42.20;24.73;;;9.30;86.50;;;;;;5085965;28;20040;-83
2021/12/13 08:05:13;;;;;;;44.65;25.40;;;9.30;86.50;;;;;;5086495;28;20048;-84
2021/12/13 08:07:49;;;;;;;41.25;25.27;;;9.30;86.50;;;;;;5086366;28;20060;-84
2021/12/13 08:10:22;;;;;;;45.03;27.17;;;9.30;86.50;;;;;;5088799;28;20048;-84
2021/12/13 08:13:01;;;;;;;48.90;27.52;;;9.30;86.50;;;;;;5089125;28;20132;-84
2021/12/13 08:15:45;;;;;;;50.22;26.48;;;9.30;86.50;;;;;;5085442;28;20518;-84
2021/12/13 08:18:30;;;;;;;45.20;26.27;;;9.30;86.50;;;;;;5090161;28;20083;-84
2021/12/13 08:21:25;;;;;;;43.28;26.58;;;9.30;86.50;;;;;;5088479;28;20051;-85
2021/12/13 08:23:56;;;;;;;50.33;26.75;;;9.20;86.50;;;;;;5082394;28;20040;-84
2021/12/13 08:26:31;;;;;;;44.65;25.98;;;9.30;86.50;;;;;;5088032;28;20642;-84
2021/12/13 08:29:07;;;;;;;44.78;25.55;;;9.30;86.50;;;;;;5088890;28;20052;-85
2021/12/13 08:31:39;;;;;;;46.38;25.95;;;9.30;86.50;;;;;;5089866;28;20054;-84
2021/12/13 08:34:11;;;;;;;50.67;27.65;;;9.30;86.50;;;;;;5074564;28;20052;-84
2021/12/13 08:36:44;;;;;;;45.50;26.33;;;9.30;86.50;;;;;;5090743;28;20048;-84
2021/12/13 08:39:14;;;;;;;51.38;27.98;;;9.30;86.50;;;;;;5089679;28;20048;-84
2021/12/13 08:41:45;;;;;;;49.47;26.58;;;9.30;86.50;;;;;;5089339;28;20513;-84
2021/12/13 08:44:12;;;;;;;50.65;26.90;;;9.30;86.60;;;;;;5094272;28;20127;-84
2021/12/13 08:46:43;;;;;;;47.33;26.48;;;9.30;86.60;;;;;;5088167;28;20055;-84
2021/12/13 08:49:14;;;;;;;45.70;25.70;;;9.30;86.60;;;;;;5093601;28;20058;-84
2021/12/13 08:51:53;;;;;;;48.30;26.90;;;9.30;86.60;;;;;;5093967;28;20054;-84
2021/12/13 08:54:21;;;;;;;43.97;25.95;;;9.30;86.60;;;;;;5094741;28;20428;-84
2021/12/13 08:56:51;;;;;;;41.67;24.23;;;9.30;86.60;;;;;;5091537;28;20054;-84
2021/12/13 08:59:25;;;;;;;40.10;25.13;;;9.30;86.60;;;;;;5093492;28;20052;-84
2021/12/13 09:02:11;;;;;;;46.00;25.83;;;9.40;86.60;;;;;;5093358;28;20066;-84
2021/12/13 09:04:52;;;;;;;44.80;24.60;;;9.30;86.60;;;;;;5092648;28;20059;-84
2021/12/13 09:07:21;;;;;;;40.85;25.60;;;9.30;86.70;;;;;;5093282;28;20050;-84
2021/12/13 09:09:49;;;;;;;45.10;25.75;;;9.30;86.70;;;;;;5093064;28;20055;-84
2021/12/13 09:12:42;;;;;;;45.58;24.17;;;9.30;86.70;;;;;;5094515;28;20494;-84
2021/12/13 09:15:24;;;;;;;43.17;25.23;;;9.40;86.70;;;;;;5094743;28;20054;-84
2021/12/13 09:17:52;;;;;;;43.28;24.90;;;9.40;86.70;;;;;;5093273;28;20048;-84
2021/12/13 09:20:25;;;;;;;45.47;24.85;;;9.40;86.70;;;;;;5095977;28;20418;-84
2021/12/13 09:22:55;;;;;;;44.42;25.30;;;9.40;86.80;;;;;;5092996;28;20059;-84
2021/12/13 09:25:34;;;;;;;44.10;25.67;;;9.40;86.80;;;;;;5091521;28;20048;-84
2021/12/13 09:28:36;;;;;;;43.58;24.25;;;9.40;86.80;;;;;;5076440;28;20537;-84
2021/12/13 09:31:08;;;;;;;45.65;24.58;;;9.40;86.80;;;;;;5066320;28;20063;-84
2021/12/13 09:33:46;;;;;;;41.42;24.02;;;9.40;86.80;;;;;;5067692;28;20056;-84
2021/12/13 09:36:20;;;;;;;44.72;25.88;;;9.40;86.80;;;;;;5054844;28;20049;-84
2021/12/13 09:39:04;;;;;;;;;;;9.40;86.90;;;;;;5055325;28;20450;-84
2021/12/13 09:41:35;;;;;;;47.78;27.05;;;9.40;86.90;;;;;;5054152;28;19924;-84
2021/12/13 09:44:08;;;;;;;44.13;24.92;;;9.40;86.90;;;;;;5036693;28;20056;-84
2021/12/13 09:47:06;;;;;;;45.65;26.52;;;9.40;86.90;;;;;;5054610;28;20052;-84
2021/12/13 09:49:48;;;;;;;47.20;25.98;;;9.50;86.90;;;;;;5054402;28;20106;-84
2021/12/13 09:52:35;;;;;;;48.90;27.80;;;9.40;86.90;;;;;;5038563;28;20055;-84
2021/12/13 09:55:31;;;;;;;46.53;26.25;;;9.40;86.90;;;;;;5050096;28;20096;-84
2021/12/13 09:58:16;;;;;;;47.83;26.88;;;9.50;86.90;;;;;;5048380;28;20055;-84
2021/12/13 10:00:55;;;;;;;48.28;26.40;;;9.50;86.90;;;;;;5066710;28;20053;-84
2021/12/13 10:03:52;;;;;;;45.72;25.15;;;9.50;87.00;;;;;;5055860;28;20049;-84
2021/12/13 10:06:24;;;;;;;48.35;26.92;;;9.50;87.00;;;;;;5069247;28;20048;-84
2021/12/13 10:09:03;;;;;;;39.92;21.92;;;9.50;87.00;;;;;;5092078;28;20052;-84
2021/12/13 10:11:46;;;;;;;48.17;25.27;;;9.50;87.00;;;;;;5091034;28;20146;-84
2021/12/13 10:14:16;;;;;;;47.53;26.08;;;9.50;87.00;;;;;;5091911;28;20131;-84
2021/12/13 10:16:46;;;;;;;47.50;24.85;;;9.50;87.00;;;;;;5091991;28;20139;-84
2021/12/13 10:19:20;;;;;;;48.63;27.05;;;9.60;87.00;;;;;;5095349;28;20043;-84
2021/12/13 10:21:48;;;;;;;34.45;22.48;;;9.60;87.00;;;;;;5091870;28;20059;-84
2021/12/13 10:24:20;;;;;;;41.60;24.27;;;9.60;87.00;;;;;;5093457;28;20040;-84
2021/12/13 10:26:51;;;;;;;48.72;25.25;;;9.60;87.00;;;;;;5091249;28;20052;-84
2021/12/13 10:29:40;;;;;;;42.65;23.65;;;9.60;87.00;;;;;;5091385;28;20529;-84
2021/12/13 10:32:12;;;;;;;43.97;24.35;;;9.70;87.00;;;;;;5091550;28;20131;-84
2021/12/13 10:34:45;;;;;;;40.45;23.80;;;9.60;87.00;;;;;;5091332;28;20055;-84
2021/12/13 10:37:35;;;;;;;53.07;26.30;;;9.70;87.00;;;;;;5090133;28;20461;-84
2021/12/13 10:40:17;;;;;;;38.30;22.08;;;9.70;87.00;;;;;;5075123;28;20518;-84
2021/12/13 10:42:51;;;;;;;31.13;20.77;;;9.70;86.90;;;;;;5091612;28;20489;-83
2021/12/13 10:45:24;;;;;;;42.75;23.73;;;9.70;86.90;;;;;;5092148;28;20056;-84
2021/12/13 10:47:58;;;;;;;54.45;27.20;;;9.70;86.90;;;;;;5090853;28;20058;-84
2021/12/13 10:50:49;;;;;;;54.83;27.85;;;9.70;86.90;;;;;;5091055;28;20409;-84
2021/12/13 10:53:19;;;;;;;55.78;27.35;;;9.70;86.90;;;;;;5090701;28;20051;-84
2021/12/13 10:55:53;;;;;;;57.60;27.70;;;9.70;86.90;;;;;;5090648;28;20055;-84
2021/12/13 10:58:23;;;;;;;;;;;9.70;86.90;;;;;;5091605;28;20040;-84
2021/12/13 11:00:56;;;;;;;50.47;26.70;;;9.80;86.90;;;;;;5087513;28;19920;-84
2021/12/13 11:03:26;;;;;;;56.95;29.00;;;9.70;86.90;;;;;;5082766;28;20060;-84
2021/12/13 11:05:56;;;;;;;52.58;26.40;;;9.70;86.90;;;;;;5085177;28;20055;-84
2021/12/13 11:08:24;;;;;;;44.08;24.17;;;9.70;86.90;;;;;;5081295;28;20058;-83
2021/12/13 11:10:56;;;;;;;42.53;23.67;;;9.80;86.90;;;;;;5075688;28;20051;-84
2021/12/13 11:13:27;;;;;;;51.50;26.77;;;9.80;86.90;;;;;;5075762;28;20409;-84
2021/12/13 11:15:59;;;;;;;38.28;22.33;;;9.80;86.90;;;;;;5071867;28;20470;-84
2021/12/13 11:18:31;;;;;;;49.75;27.13;;;9.80;86.90;;;;;;5080487;28;20053;-84
2021/12/13 11:21:20;;;;;;;44.17;25.35;;;9.80;86.90;;;;;;5071840;28;20048;-84
2021/12/13 11:23:48;;;;;;;41.70;24.02;;;9.80;86.90;;;;;;5076385;28;20557;-84
2021/12/13 11:26:20;;;;;;;46.22;26.15;;;9.80;86.90;;;;;;5076233;28;20044;-85
2021/12/13 11:28:48;;;;;;;49.17;26.15;;;9.80;86.80;;;;;;5076511;28;20044;-84
2021/12/13 11:31:23;;;;;;;45.65;26.45;;;9.90;86.80;;;;;;5074128;28;20063;-84
2021/12/13 11:34:02;;;;;;;41.22;23.40;;;9.80;86.80;;;;;;5081525;28;20567;-84
2021/12/13 11:36:47;;;;;;;44.90;26.40;;;9.90;86.80;;;;;;5088096;28;20048;-84
2021/12/13 11:39:32;;;;;;;43.33;24.27;;;9.90;86.80;;;;;;5076630;28;20044;-85
2021/12/13 11:42:21;;;;;;;45.67;26.88;;;9.90;86.80;;;;;;5087232;28;20421;-85
2021/12/13 11:44:54;;;;;;;41.45;23.85;;;9.80;86.70;;;;;;5077472;28;20048;-84
2021/12/13 11:48:01;;;;;;;44.00;25.47;;;9.90;86.70;;;;;;5076249;28;20044;-84
2021/12/13 11:51:06;;;;;;;46.72;26.63;;;9.90;86.70;;;;;;5076323;28;20313;-84
2021/12/13 11:54:07;;;;;;;41.75;25.25;;;9.90;86.70;;;;;;5076254;28;20050;-84
2021/12/13 11:56:52;;;;;;;39.78;22.30;;;9.90;86.70;;;;;;5076119;28;20046;-83
2021/12/13 11:59:44;;;;;;;36.50;22.40;;;9.90;86.70;;;;;;5076149;28;20041;-84
2021/12/13 12:02:54;;;;;;;39.70;24.55;;;9.90;86.60;;;;;;5075819;28;20178;-84
2021/12/13 12:05:52;;;;;;;38.75;23.63;;;9.90;86.60;;;;;;5076005;28;20044;-83
2021/12/13 12:08:38;;;;;;;38.97;23.67;;;9.90;86.60;;;;;;5076163;28;20050;-84
2021/12/13 12:11:23;;;;;;;35.83;22.52;;;9.90;86.60;;;;;;5075859;28;20047;-84
2021/12/13 12:14:05;;;;;;;36.45;23.42;;;9.90;86.60;;;;;;5076222;28;20040;-83
2021/12/13 12:16:44;;;;;;;35.63;22.48;;;9.90;86.60;;;;;;5075712;28;20048;-83
2021/12/13 12:19:27;;;;;;;35.22;21.88;;;9.90;86.60;;;;;;5080662;28;20166;-83
2021/12/13 12:22:15;;;;;;;34.97;21.50;;;9.90;86.60;;;;;;5073845;28;20054;-84
2021/12/13 12:24:49;;;;;;;31.65;21.20;;;9.90;86.60;;;;;;5090020;28;20127;-84
2021/12/13 12:27:36;;;;;;;32.10;20.48;;;9.90;86.50;;;;;;5083498;28;20044;-84
2021/12/13 12:30:19;;;;;;;30.70;20.23;;;9.90;86.50;;;;;;5080822;28;20056;-84
2021/12/13 12:32:52;;;;;;;33.40;21.17;;;9.90;86.50;;;;;;5079641;28;20059;-84
2021/12/13 12:35:27;;;;;;;29.63;20.23;;;9.90;86.40;;;;;;5080170;28;20044;-84
2021/12/13 12:38:02;;;;;;;31.40;19.33;;;9.90;86.40;;;;;;5079792;28;20491;-84
2021/12/13 12:40:37;;;;;;;29.88;19.17;;;9.90;86.40;;;;;;5078750;28;20132;-83
2021/12/13 12:43:15;;;;;;;30.52;20.30;;;9.90;86.30;;;;;;5075939;28;20044;-84
2021/12/13 12:45:57;;;;;;;31.67;20.00;;;9.90;86.30;;;;;;5077269;28;20053;-83
2021/12/13 12:48:31;;;;;;;27.73;18.38;;;9.90;86.30;;;;;;5079626;28;20056;-84
2021/12/13 12:51:17;;;;;;;28.88;17.83;;;9.90;86.20;;;;;;5073923;28;20044;-83
2021/12/13 12:53:51;;;;;;;28.50;18.60;;;9.90;86.20;;;;;;5078107;28;20542;-84
2021/12/13 12:56:25;;;;;;;25.92;18.38;;;9.90;86.20;;;;;;5077620;28;20498;-84
2021/12/13 12:59:00;;;;;;;29.25;18.73;;;9.90;86.20;;;;;;5079863;28;20040;-83
2021/12/13 13:01:34;;;;;;;23.98;16.67;;;9.90;86.10;;;;;;5078712;28;20054;-84
2021/12/13 13:04:17;;;;;;;23.23;16.13;;;9.90;86.10;;;;;;5074796;28;20048;-83
2021/12/13 13:07:05;;;;;;;26.20;16.83;;;9.90;86.00;;;;;;5091061;28;20056;-84
2021/12/13 13:09:38;;;;;;;22.65;14.60;;;9.90;86.00;;;;;;5078170;28;20048;-84
2021/12/13 13:12:07;;;;;;;22.20;15.43;;;9.90;85.90;;;;;;5079106;28;20502;-85
2021/12/13 13:14:43;;;;;;;21.77;14.40;;;9.90;85.90;;;;;;5079528;28;20059;-85
2021/12/13 13:17:10;;;;;;;13.70;9.45;;;9.90;85.90;;;;;;5078782;28;20052;-84
2021/12/13 13:19:46;;;;;;;19.45;14.20;;;9.90;85.80;;;;;;5086354;28;20062;-84
2021/12/13 13:22:25;;;;;;;15.00;10.23;;;9.90;85.80;;;;;;5076620;28;20044;-85
2021/12/13 13:25:17;;;;;;;13.02;9.15;;;9.90;85.70;;;;;;5075784;28;20048;-85
2021/12/13 13:27:45;;;;;;;11.85;9.05;;;9.90;85.60;;;;;;5076625;28;20441;-84
2021/12/13 13:30:40;;;;;;;13.85;9.57;;;9.90;85.60;;;;;;5074496;28;20047;-85
2021/12/13 13:33:07;;;;;;;16.80;12.43;;;9.90;85.50;;;;;;5072925;28;20080;-84
2021/12/13 13:35:35;;;;;;;18.15;11.63;;;9.90;85.50;;;;;;5078844;28;20056;-84
2021/12/13 13:38:05;;;;;;;9.95;6.32;;;9.90;85.50;;;;;;5078789;28;20431;-85
2021/12/13 13:40:34;;;;;;;9.07;6.43;;;9.90;85.40;;;;;;5078733;28;20418;-84